createdAt,value
2019-01-25T00:00:01.987Z,70.63
2019-01-25T00:01:12.122Z,70.54
2019-01-25T00:02:22.221Z,70.63
2019-01-25T00:03:32.336Z,70.54
2019-01-25T00:04:42.443Z,70.63
2019-01-25T00:05:52.543Z,70.73
2019-01-25T00:07:02.643Z,70.63
2019-01-25T00:08:12.762Z,70.35
2019-01-25T00:09:22.864Z,70.54
2019-01-25T00:10:32.992Z,70.54
2019-01-25T00:11:43.108Z,70.54
2019-01-25T00:12:53.216Z,70.54
2019-01-25T00:14:03.334Z,70.54
2019-01-25T00:15:13.449Z,70.54
2019-01-25T00:16:23.566Z,70.54
2019-01-25T00:17:33.689Z,70.54
2019-01-25T00:18:43.556Z,70.73
2019-01-25T00:19:53.663Z,70.73
2019-01-25T00:21:03.884Z,70.82
2019-01-25T00:22:13.983Z,70.73
2019-01-25T00:23:24.087Z,70.73
2019-01-25T00:24:33.695Z,70.25
2019-01-25T00:25:43.808Z,70.44
2019-01-25T00:26:53.911Z,70.54
2019-01-25T00:28:04.026Z,70.92
2019-01-25T00:29:14.126Z,70.63
2019-01-25T00:30:24.248Z,70.54
2019-01-25T00:31:35.369Z,70.54
2019-01-25T00:32:45.234Z,70.44
2019-01-25T00:33:55.094Z,70.73
2019-01-25T00:35:05.248Z,70.92
2019-01-25T00:36:15.411Z,70.44
2019-01-25T00:37:25.775Z,70.54
2019-01-25T00:38:35.894Z,70.44
2019-01-25T00:39:45.995Z,70.54
2019-01-25T00:40:56.114Z,70.73
2019-01-25T00:42:06.244Z,70.54
2019-01-25T00:43:16.357Z,70.63
2019-01-25T00:44:26.460Z,70.73
2019-01-25T00:45:36.567Z,70.44
2019-01-25T00:46:46.673Z,70.63
2019-01-25T00:47:56.771Z,70.54
2019-01-25T00:49:06.870Z,70.25
2019-01-25T00:50:16.977Z,70.16
2019-01-25T00:51:27.106Z,69.97
2019-01-25T00:52:37.208Z,70.06
2019-01-25T00:53:47.329Z,70.54
2019-01-25T00:54:57.447Z,70.25
2019-01-25T00:56:07.552Z,70.82
2019-01-25T00:57:17.654Z,70.92
2019-01-25T00:58:27.769Z,70.82
2019-01-25T00:59:37.861Z,70.82
2019-01-25T01:00:48.018Z,70.63
2019-01-25T01:01:58.119Z,70.63
2019-01-25T01:03:08.211Z,70.63
2019-01-25T01:04:18.323Z,70.44
2019-01-25T01:05:28.435Z,70.73
2019-01-25T01:06:38.566Z,70.63
2019-01-25T01:07:48.665Z,70.82
2019-01-25T01:08:58.778Z,70.92
2019-01-25T01:10:13.941Z,70.63
2019-01-25T01:11:24.361Z,70.73
2019-01-25T01:12:34.473Z,70.44
2019-01-25T01:13:44.598Z,70.35
2019-01-25T01:14:54.702Z,71.11
2019-01-25T01:16:04.800Z,70.63
2019-01-25T01:17:15.124Z,70.63
2019-01-25T01:18:25.265Z,70.54
2019-01-25T01:19:35.371Z,70.44
2019-01-25T01:20:45.219Z,70.54
2019-01-25T01:21:55.347Z,70.82
2019-01-25T01:23:05.492Z,70.63
2019-01-25T01:24:15.612Z,70.44
2019-01-25T01:25:25.761Z,70.73
2019-01-25T01:26:35.869Z,70.54
2019-01-25T01:27:45.969Z,70.54
2019-01-25T01:28:56.092Z,70.54
2019-01-25T01:30:06.193Z,70.54
2019-01-25T01:31:16.046Z,70.44
2019-01-25T01:32:26.139Z,70.63
2019-01-25T01:33:36.259Z,70.44
2019-01-25T01:34:46.347Z,70.54
2019-01-25T01:35:56.440Z,70.44
2019-01-25T01:37:06.541Z,70.63
2019-01-25T01:38:16.639Z,70.54
2019-01-25T01:39:26.846Z,70.54
2019-01-25T01:40:36.945Z,70.73
2019-01-25T01:41:47.055Z,70.54
2019-01-25T01:42:56.894Z,70.54
2019-01-25T01:44:07.001Z,70.73
2019-01-25T01:45:17.121Z,70.63
2019-01-25T01:46:27.215Z,70.54
2019-01-25T01:47:37.322Z,70.73
2019-01-25T01:48:47.438Z,70.54
2019-01-25T01:49:57.540Z,70.73
2019-01-25T01:51:07.647Z,70.73
2019-01-25T01:52:17.759Z,70.73
2019-01-25T01:53:27.857Z,70.82
2019-01-25T01:54:37.953Z,71.01
2019-01-25T01:55:48.045Z,71.01
2019-01-25T01:56:58.147Z,70.92
2019-01-25T01:58:08.239Z,71.11
2019-01-25T01:59:18.340Z,71.11
2019-01-25T02:00:28.446Z,71.2
2019-01-25T02:01:39.512Z,71.3
2019-01-25T02:02:49.631Z,71.39
2019-01-25T02:03:59.734Z,70.82
2019-01-25T02:05:09.847Z,71.11
2019-01-25T02:06:19.943Z,71.2
2019-01-25T02:07:30.051Z,71.11
2019-01-25T02:08:40.143Z,71.11
2019-01-25T02:09:50.234Z,70.73
2019-01-25T02:11:00.344Z,71.3
2019-01-25T02:12:10.475Z,71.58
2019-01-25T02:13:20.565Z,71.67
2019-01-25T02:14:30.663Z,71.67
2019-01-25T02:15:40.760Z,71.48
2019-01-25T02:16:50.864Z,71.39
2019-01-25T02:18:00.969Z,71.58
2019-01-25T02:19:10.810Z,71.58
2019-01-25T02:20:20.935Z,71.48
2019-01-25T02:21:31.046Z,71.3
2019-01-25T02:22:41.156Z,71.67
2019-01-25T02:23:51.252Z,71.39
2019-01-25T02:25:01.348Z,71.48
2019-01-25T02:26:11.451Z,71.58
2019-01-25T02:27:21.293Z,71.3
2019-01-25T02:28:31.383Z,71.48
2019-01-25T02:29:41.119Z,71.48
2019-01-25T02:30:51.227Z,71.67
2019-01-25T02:32:01.548Z,71.48
2019-01-25T02:33:11.880Z,71.48
2019-01-25T02:34:21.985Z,71.58
2019-01-25T02:35:32.099Z,71.11
2019-01-25T02:36:42.204Z,71.2
2019-01-25T02:37:52.305Z,71.58
2019-01-25T02:39:02.420Z,71.45
2019-01-25T02:40:12.520Z,71.26
2019-01-25T02:41:22.632Z,71.45
2019-01-25T02:42:33.285Z,71.64
2019-01-25T02:43:43.513Z,71.73
2019-01-25T02:44:53.623Z,71.45
2019-01-25T02:46:03.727Z,71.26
2019-01-25T02:47:13.834Z,71.35
2019-01-25T02:48:23.935Z,72.3
2019-01-25T02:49:34.107Z,72.11
2019-01-25T02:50:44.221Z,72.11
2019-01-25T02:51:54.314Z,72.2
2019-01-25T02:53:06.536Z,72.11
2019-01-25T02:54:16.639Z,71.83
2019-01-25T02:55:26.739Z,72.11
2019-01-25T02:56:36.839Z,72.3
2019-01-25T02:57:46.963Z,72.49
2019-01-25T02:58:57.060Z,72.05
2019-01-25T03:00:07.160Z,72.11
2019-01-25T03:01:17.017Z,72.11
2019-01-25T03:02:27.117Z,72.2
2019-01-25T03:03:37.214Z,72.11
2019-01-25T03:04:47.305Z,72.52
2019-01-25T03:05:57.401Z,72.11
2019-01-25T03:07:07.506Z,72.2
2019-01-25T03:08:17.610Z,72.39
2019-01-25T03:09:27.710Z,72.77
2019-01-25T03:10:37.808Z,72.58
2019-01-25T03:11:54.916Z,72.3
2019-01-25T03:13:05.026Z,72.2
2019-01-25T03:14:15.162Z,72.39
2019-01-25T03:15:25.016Z,72.39
2019-01-25T03:16:35.115Z,72.39
2019-01-25T03:17:45.214Z,72.2
2019-01-25T03:18:55.324Z,72.3
2019-01-25T03:20:05.071Z,72.11
2019-01-25T03:21:15.179Z,72.39
2019-01-25T03:22:25.290Z,72.39
2019-01-25T03:23:35.395Z,72.49
2019-01-25T03:24:45.139Z,72.62
2019-01-25T03:25:55.237Z,72.49
2019-01-25T03:27:05.357Z,72.86
2019-01-25T03:28:15.453Z,72.96
2019-01-25T03:29:25.555Z,72.3
2019-01-25T03:30:35.684Z,72.77
2019-01-25T03:31:45.799Z,72.96
2019-01-25T03:32:55.736Z,72.96
2019-01-25T03:34:06.073Z,72.86
2019-01-25T03:35:16.183Z,72.49
2019-01-25T03:36:25.947Z,72.39
2019-01-25T03:37:36.079Z,72.96
2019-01-25T03:38:45.929Z,72.86
2019-01-25T03:39:55.683Z,72.96
2019-01-25T03:41:06.014Z,72.67
2019-01-25T03:42:16.122Z,72.86
2019-01-25T03:43:26.215Z,72.86
2019-01-25T03:44:36.329Z,72.67
2019-01-25T03:45:46.447Z,72.67
2019-01-25T03:46:56.539Z,73.05
2019-01-25T03:48:06.635Z,72.86
2019-01-25T03:49:16.490Z,72.67
2019-01-25T03:50:26.584Z,72.86
2019-01-25T03:51:36.692Z,72.96
2019-01-25T03:52:46.807Z,73.33
2019-01-25T03:53:56.907Z,73.43
2019-01-25T03:55:07.015Z,73.33
2019-01-25T03:56:17.125Z,72.86
2019-01-25T03:57:26.961Z,73.33
2019-01-25T03:58:37.069Z,73.24
2019-01-25T03:59:47.185Z,73.33
2019-01-25T04:00:57.300Z,73.24
2019-01-25T04:02:07.394Z,73.33
2019-01-25T04:03:17.513Z,73.43
2019-01-25T04:04:27.621Z,73.33
2019-01-25T04:05:37.712Z,73.28
2019-01-25T04:06:47.810Z,73.56
2019-01-25T04:07:57.896Z,73.18
2019-01-25T04:09:07.771Z,72.99
2019-01-25T04:10:17.897Z,72.77
2019-01-25T04:11:28.026Z,72.86
2019-01-25T04:12:38.135Z,72.96
2019-01-25T04:13:47.989Z,72.39
2019-01-25T04:14:58.102Z,73.05
2019-01-25T04:16:08.192Z,72.86
2019-01-25T04:17:18.305Z,72.96
2019-01-25T04:18:28.390Z,72.96
2019-01-25T04:19:38.496Z,72.86
2019-01-25T04:20:48.611Z,72.67
2019-01-25T04:21:58.714Z,72.96
2019-01-25T04:23:08.806Z,72.96
2019-01-25T04:24:18.903Z,72.86
2019-01-25T04:25:29.025Z,72.9
2019-01-25T04:26:39.120Z,73.09
2019-01-25T04:27:49.213Z,72.9
2019-01-25T04:28:59.323Z,72.71
2019-01-25T04:30:09.477Z,72.71
2019-01-25T04:31:19.603Z,72.8
2019-01-25T04:32:29.724Z,72.71
2019-01-25T04:33:39.830Z,72.71
2019-01-25T04:34:49.991Z,72.71
2019-01-25T04:36:00.107Z,72.8
2019-01-25T04:37:09.965Z,72.71
2019-01-25T04:38:20.069Z,73.09
2019-01-25T04:39:30.186Z,72.99
2019-01-25T04:40:40.290Z,73.09
2019-01-25T04:41:50.393Z,72.86
2019-01-25T04:43:00.501Z,72.96
2019-01-25T04:44:10.613Z,72.96
2019-01-25T04:45:20.709Z,72.71
2019-01-25T04:46:30.840Z,73.43
2019-01-25T04:47:40.936Z,73.28
2019-01-25T04:48:51.042Z,72.71
2019-01-25T04:50:00.896Z,72.9
2019-01-25T04:51:11.017Z,72.86
2019-01-25T04:52:21.106Z,72.67
2019-01-25T04:53:31.227Z,72.86
2019-01-25T04:54:41.069Z,72.77
2019-01-25T04:55:51.179Z,73.24
2019-01-25T04:57:03.158Z,73.33
2019-01-25T04:58:13.257Z,72.86
2019-01-25T04:59:23.363Z,73.14
2019-01-25T05:00:33.467Z,73.05
2019-01-25T05:01:43.307Z,72.96
2019-01-25T05:02:55.154Z,72.86
2019-01-25T05:04:05.264Z,72.86
2019-01-25T05:05:15.379Z,72.86
2019-01-25T05:06:25.521Z,72.96
2019-01-25T05:07:35.663Z,73.24
2019-01-25T05:08:45.772Z,73.52
2019-01-25T05:09:55.892Z,73.43
2019-01-25T05:11:06.000Z,73.24
2019-01-25T05:12:22.883Z,73.14
2019-01-25T05:13:34.227Z,73.43
2019-01-25T05:14:44.345Z,73.43
2019-01-25T05:15:54.467Z,72.86
2019-01-25T05:17:05.179Z,73.43
2019-01-25T05:18:15.293Z,73.05
2019-01-25T05:19:25.418Z,73.14
2019-01-25T05:20:35.526Z,73.14
2019-01-25T05:21:45.649Z,73.24
2019-01-25T05:22:55.769Z,73.24
2019-01-25T05:24:05.911Z,73.33
2019-01-25T05:25:16.030Z,73.43
2019-01-25T05:26:26.146Z,73.24
2019-01-25T05:27:36.267Z,73.14
2019-01-25T05:28:46.378Z,73.43
2019-01-25T05:29:56.501Z,73.43
2019-01-25T05:31:06.635Z,73.71
2019-01-25T05:32:16.738Z,73.71
2019-01-25T05:33:26.844Z,73.52
2019-01-25T05:34:37.171Z,73.71
2019-01-25T05:35:47.289Z,74
2019-01-25T05:36:57.419Z,73.9
2019-01-25T05:38:07.153Z,73.81
2019-01-25T05:39:17.274Z,74.09
2019-01-25T05:40:27.396Z,73.81
2019-01-25T05:41:37.276Z,73.71
2019-01-25T05:42:47.391Z,73.52
2019-01-25T05:43:57.499Z,73.81
2019-01-25T05:45:07.609Z,73.9
2019-01-25T05:46:17.730Z,73.71
2019-01-25T05:47:27.829Z,73.52
2019-01-25T05:48:37.925Z,73.71
2019-01-25T05:49:47.788Z,74.09
2019-01-25T05:50:57.903Z,73.81
2019-01-25T05:52:08.011Z,73.62
2019-01-25T05:53:18.108Z,73.9
2019-01-25T05:54:28.211Z,74.28
2019-01-25T05:55:38.304Z,73.9
2019-01-25T05:56:49.416Z,73.81
2019-01-25T05:57:59.517Z,73.62
2019-01-25T05:59:09.654Z,73.81
2019-01-25T06:00:19.767Z,73.81
2019-01-25T06:01:29.880Z,74.19
2019-01-25T06:02:40.018Z,74.38
2019-01-25T06:03:50.115Z,74.28
2019-01-25T06:05:00.228Z,74.38
2019-01-25T06:06:10.347Z,73.9
2019-01-25T06:07:20.451Z,73.62
2019-01-25T06:08:30.642Z,73.62
2019-01-25T06:09:47.029Z,73.62
2019-01-25T06:10:57.145Z,73.71
2019-01-25T06:12:07.257Z,73.71
2019-01-25T06:13:17.364Z,73.9
2019-01-25T06:14:27.482Z,73.81
2019-01-25T06:15:37.594Z,73.71
2019-01-25T06:16:47.695Z,73.81
2019-01-25T06:17:57.791Z,74.19
2019-01-25T06:19:07.917Z,74.47
2019-01-25T06:20:18.040Z,74.57
2019-01-25T06:21:28.156Z,74.38
2019-01-25T06:22:38.256Z,74.19
2019-01-25T06:23:48.453Z,74.66
2019-01-25T06:24:58.700Z,74.85
2019-01-25T06:26:08.852Z,74.76
2019-01-25T06:27:18.977Z,74.95
2019-01-25T06:28:29.072Z,74.76
2019-01-25T06:29:38.928Z,74.95
2019-01-25T06:30:49.025Z,74.95
2019-01-25T06:31:59.133Z,74.85
2019-01-25T06:33:09.237Z,74.66
2019-01-25T06:34:19.338Z,74.57
2019-01-25T06:35:29.452Z,74.66
2019-01-25T06:36:39.564Z,74.47
2019-01-25T06:37:49.693Z,74.47
2019-01-25T06:38:59.809Z,74.19
2019-01-25T06:40:09.906Z,74.28
2019-01-25T06:41:20.015Z,74.28
2019-01-25T06:42:30.116Z,74.19
2019-01-25T06:43:40.211Z,74.47
2019-01-25T06:44:50.307Z,74.09
2019-01-25T06:46:00.393Z,74.47
2019-01-25T06:47:10.518Z,73.71
2019-01-25T06:48:20.636Z,74
2019-01-25T06:49:31.195Z,74
2019-01-25T06:50:41.039Z,73.81
2019-01-25T06:51:51.149Z,73.9
2019-01-25T06:53:01.269Z,73.81
2019-01-25T06:54:11.385Z,73.81
2019-01-25T06:55:22.101Z,73.81
2019-01-25T06:56:32.206Z,74.09
2019-01-25T06:57:42.308Z,74.19
2019-01-25T06:58:52.434Z,73.81
2019-01-25T07:00:02.531Z,73.81
2019-01-25T07:01:12.633Z,73.43
2019-01-25T07:02:22.732Z,73.43
2019-01-25T07:03:33.034Z,73.52
2019-01-25T07:04:43.133Z,73.52
2019-01-25T07:05:53.252Z,73.62
2019-01-25T07:07:03.357Z,73.9
2019-01-25T07:08:13.455Z,73.71
2019-01-25T07:09:23.555Z,74
2019-01-25T07:10:33.661Z,73.71
2019-01-25T07:11:51.227Z,73.62
2019-01-25T07:13:01.695Z,73.62
2019-01-25T07:14:11.808Z,73.62
2019-01-25T07:15:21.906Z,73.81
2019-01-25T07:16:31.999Z,73.81
2019-01-25T07:17:42.101Z,73.9
2019-01-25T07:18:52.221Z,73.9
2019-01-25T07:20:02.344Z,73.81
2019-01-25T07:21:12.463Z,73.62
2019-01-25T07:22:22.573Z,73.62
2019-01-25T07:23:32.671Z,73.9
2019-01-25T07:24:42.776Z,73.62
2019-01-25T07:26:00.154Z,74.19
2019-01-25T07:27:10.257Z,74.19
2019-01-25T07:28:20.362Z,74.09
2019-01-25T07:29:30.493Z,74.28
2019-01-25T07:30:40.679Z,74.38
2019-01-25T07:31:50.819Z,74.28
2019-01-25T07:33:00.948Z,74.47
2019-01-25T07:34:11.172Z,74.47
2019-01-25T07:35:21.337Z,74.19
2019-01-25T07:36:31.454Z,74.09
2019-01-25T07:37:41.602Z,74.41
2019-01-25T07:38:51.846Z,73.94
2019-01-25T07:40:01.984Z,73.66
2019-01-25T07:41:12.276Z,73.66
2019-01-25T07:42:22.547Z,73.75
2019-01-25T07:43:32.755Z,73.85
2019-01-25T07:44:43.050Z,73.75
2019-01-25T07:45:53.564Z,73.94
2019-01-25T07:47:03.813Z,73.75
2019-01-25T07:48:13.977Z,73.66
2019-01-25T07:49:24.292Z,73.94
2019-01-25T07:50:34.643Z,73.62
2019-01-25T07:51:44.820Z,73.71
2019-01-25T07:52:55.011Z,73.52
2019-01-25T07:54:05.134Z,73.52
2019-01-25T07:55:15.326Z,73.52
2019-01-25T07:56:25.546Z,73.62
2019-01-25T07:57:35.712Z,73.62
2019-01-25T07:58:45.267Z,73.9
2019-01-25T07:59:56.170Z,73.71
2019-01-25T08:01:06.435Z,74.66
2019-01-25T08:02:16.653Z,74.47
2019-01-25T08:03:26.779Z,74.38
2019-01-25T08:04:36.961Z,74.19
2019-01-25T08:05:47.248Z,74.47
2019-01-25T08:06:57.409Z,74.66
2019-01-25T08:08:07.753Z,74.95
2019-01-25T08:09:17.886Z,74.66
2019-01-25T08:10:28.089Z,74.47
2019-01-25T08:11:38.713Z,74.76
2019-01-25T08:12:48.939Z,74.47
2019-01-25T08:13:59.160Z,74.28
2019-01-25T08:15:09.335Z,74.76
2019-01-25T08:16:19.645Z,74.85
2019-01-25T08:17:29.798Z,74.76
2019-01-25T08:18:39.984Z,75.42
2019-01-25T08:19:50.136Z,75.23
2019-01-25T08:21:02.456Z,75.23
2019-01-25T08:22:12.768Z,75.42
2019-01-25T08:23:22.980Z,75.42
2019-01-25T08:24:33.206Z,75.42
2019-01-25T08:25:43.493Z,75.32
2019-01-25T08:26:53.760Z,75.32
2019-01-25T08:28:03.978Z,75.32
2019-01-25T08:29:14.298Z,75.23
2019-01-25T08:30:31.215Z,75.23
2019-01-25T08:31:41.477Z,75.32
2019-01-25T08:32:52.255Z,75.07
2019-01-25T08:34:02.487Z,75.13
2019-01-25T08:35:12.784Z,75.32
2019-01-25T08:36:23.110Z,74.95
2019-01-25T08:37:33.079Z,75.23
2019-01-25T08:38:43.217Z,75.23
2019-01-25T08:39:53.114Z,75.51
2019-01-25T08:41:03.560Z,75.55
2019-01-25T08:42:18.030Z,75.07
2019-01-25T08:43:28.194Z,75.26
2019-01-25T08:44:38.428Z,75.26
2019-01-25T08:45:49.501Z,75.36
2019-01-25T08:46:59.916Z,75.17
2019-01-25T08:48:10.072Z,75.17
2019-01-25T08:49:20.367Z,75.26
2019-01-25T08:50:30.960Z,74.6
2019-01-25T08:51:41.524Z,75.26
2019-01-25T08:52:52.207Z,75.17
2019-01-25T08:54:02.716Z,75.55
2019-01-25T08:55:12.948Z,75.26
2019-01-25T08:56:24.448Z,75.07
2019-01-25T08:57:35.150Z,75.45
2019-01-25T08:58:45.383Z,76.02
2019-01-25T08:59:55.687Z,75.74
2019-01-25T09:01:05.552Z,75.93
2019-01-25T09:02:15.669Z,76.02
2019-01-25T09:03:25.781Z,75.93
2019-01-25T09:04:35.884Z,75.64
2019-01-25T09:05:45.768Z,76.21
2019-01-25T09:06:55.883Z,75.93
2019-01-25T09:08:06.034Z,76.12
2019-01-25T09:09:16.145Z,76.12
2019-01-25T09:10:26.264Z,75.83
2019-01-25T09:11:36.383Z,75.83
2019-01-25T09:12:46.521Z,75.74
2019-01-25T09:13:56.639Z,75.93
2019-01-25T09:15:06.742Z,75.59
2019-01-25T09:16:16.874Z,75.78
2019-01-25T09:17:26.982Z,75.59
2019-01-25T09:18:37.099Z,75.59
2019-01-25T09:19:47.211Z,75.12
2019-01-25T09:20:57.331Z,75.4
2019-01-25T09:22:07.431Z,75.4
2019-01-25T09:23:17.570Z,74.93
2019-01-25T09:24:27.706Z,74.93
2019-01-25T09:25:37.819Z,75.02
2019-01-25T09:26:48.284Z,75.07
2019-01-25T09:27:58.389Z,74.79
2019-01-25T09:29:08.515Z,74.6
2019-01-25T09:30:18.663Z,74.51
2019-01-25T09:31:28.776Z,74.79
2019-01-25T09:32:39.061Z,74.98
2019-01-25T09:33:48.854Z,75.17
2019-01-25T09:34:59.033Z,75.17
2019-01-25T09:36:09.889Z,75.36
2019-01-25T09:37:20.022Z,75.26
2019-01-25T09:38:30.157Z,75.17
2019-01-25T09:39:41.976Z,75.55
2019-01-25T09:40:52.097Z,75.74
2019-01-25T09:42:02.259Z,75.93
2019-01-25T09:43:12.375Z,75.93
2019-01-25T09:44:22.473Z,75.93
2019-01-25T09:45:32.593Z,75.83
2019-01-25T09:46:42.532Z,75.74
2019-01-25T09:47:52.639Z,76.21
2019-01-25T09:49:02.746Z,75.93
2019-01-25T09:50:12.867Z,75.64
2019-01-25T09:51:22.756Z,75.93
2019-01-25T09:52:32.913Z,76.02
2019-01-25T09:53:43.034Z,76.31
2019-01-25T09:54:53.159Z,76.4
2019-01-25T09:56:03.261Z,76.59
2019-01-25T09:57:13.391Z,76.97
2019-01-25T09:58:23.502Z,76.4
2019-01-25T09:59:33.627Z,76.5
2019-01-25T10:00:45.340Z,76.4
2019-01-25T10:01:55.459Z,76.4
2019-01-25T10:03:05.782Z,76.68
2019-01-25T10:04:15.891Z,76.5
2019-01-25T10:05:26.012Z,76.5
2019-01-25T10:06:36.134Z,76.5
2019-01-25T10:07:46.267Z,76.68
2019-01-25T10:08:56.472Z,76.59
2019-01-25T10:10:06.589Z,76.97
2019-01-25T10:11:16.729Z,77.44
2019-01-25T10:12:26.919Z,77.44
2019-01-25T10:13:46.587Z,77.34
2019-01-25T10:14:56.726Z,77.15
2019-01-25T10:16:06.847Z,77.63
2019-01-25T10:17:16.965Z,78.01
2019-01-25T10:18:27.559Z,77.44
2019-01-25T10:19:37.688Z,77.63
2019-01-25T10:20:47.812Z,77.53
2019-01-25T10:21:57.920Z,77.63
2019-01-25T10:23:07.669Z,77.44
2019-01-25T10:24:17.837Z,77.63
2019-01-25T10:25:27.951Z,77.72
2019-01-25T10:26:38.077Z,77.91
2019-01-25T10:27:49.692Z,77.91
2019-01-25T10:28:59.796Z,77.91
2019-01-25T10:30:09.949Z,77.63
2019-01-25T10:31:20.068Z,78.01
2019-01-25T10:32:30.190Z,77.63
2019-01-25T10:33:40.332Z,77.53
2019-01-25T10:34:50.470Z,77.53
2019-01-25T10:36:00.613Z,77.44
2019-01-25T10:37:10.707Z,77.15
2019-01-25T10:38:20.854Z,77.53
2019-01-25T10:39:30.955Z,77.44
2019-01-25T10:40:41.088Z,77.34
2019-01-25T10:41:52.468Z,77.44
2019-01-25T10:43:02.620Z,77.44
2019-01-25T10:44:12.989Z,77.25
2019-01-25T10:45:23.125Z,77.15
2019-01-25T10:46:33.235Z,77.15
2019-01-25T10:47:43.350Z,77.15
2019-01-25T10:48:53.458Z,76.87
2019-01-25T10:50:03.628Z,77.15
2019-01-25T10:51:13.730Z,77.25
2019-01-25T10:52:23.608Z,77.15
2019-01-25T10:53:33.762Z,77.25
2019-01-25T10:54:43.871Z,77.15
2019-01-25T10:55:53.991Z,76.87
2019-01-25T10:57:04.102Z,76.97
2019-01-25T10:58:14.255Z,76.97
2019-01-25T10:59:24.415Z,76.34
2019-01-25T11:00:34.550Z,76.34
2019-01-25T11:01:44.674Z,76.82
2019-01-25T11:03:00.683Z,76.34
2019-01-25T11:04:14.140Z,76.44
2019-01-25T11:05:24.261Z,76.53
2019-01-25T11:06:34.373Z,75.96
2019-01-25T11:07:44.495Z,75.96
2019-01-25T11:08:55.566Z,76.44
2019-01-25T11:10:05.694Z,76.53
2019-01-25T11:11:15.828Z,76.44
2019-01-25T11:12:25.970Z,76.44
2019-01-25T11:13:36.110Z,76.34
2019-01-25T11:14:46.241Z,75.96
2019-01-25T11:15:56.385Z,75.31
2019-01-25T11:17:06.484Z,75.4
2019-01-25T11:18:16.626Z,75.05
2019-01-25T11:19:26.739Z,74.87
2019-01-25T11:20:36.589Z,75.15
2019-01-25T11:21:46.699Z,75.15
2019-01-25T11:22:56.822Z,75.34
2019-01-25T11:24:10.393Z,74.96
2019-01-25T11:25:20.527Z,74.68
2019-01-25T11:26:30.645Z,74.49
2019-01-25T11:27:40.774Z,74.4
2019-01-25T11:28:50.893Z,74.17
2019-01-25T11:30:01.005Z,74.45
2019-01-25T11:31:11.153Z,74.36
2019-01-25T11:32:21.306Z,74.36
2019-01-25T11:33:31.409Z,74.64
2019-01-25T11:34:40.929Z,75.02
2019-01-25T11:35:51.059Z,75.21
2019-01-25T11:37:01.178Z,75.02
2019-01-25T11:38:11.290Z,75.4
2019-01-25T11:39:21.159Z,74.83
2019-01-25T11:40:31.073Z,75.4
2019-01-25T11:41:41.189Z,75.4
2019-01-25T11:42:51.336Z,75.4
2019-01-25T11:44:01.620Z,75.87
2019-01-25T11:45:11.754Z,75.87
2019-01-25T11:46:21.911Z,75.68
2019-01-25T11:47:32.027Z,75.59
2019-01-25T11:48:42.151Z,75.87
2019-01-25T11:49:52.285Z,75.78
2019-01-25T11:51:02.429Z,75.87
2019-01-25T11:52:12.542Z,75.68
2019-01-25T11:53:22.686Z,75.78
2019-01-25T11:54:32.820Z,75.87
2019-01-25T11:55:42.945Z,75.78
2019-01-25T11:56:53.081Z,75.87
2019-01-25T11:58:03.249Z,75.21
2019-01-25T11:59:13.391Z,75.31
2019-01-25T12:00:23.591Z,75.31
2019-01-25T12:01:33.705Z,75.31
2019-01-25T12:02:43.821Z,76.06
2019-01-25T12:03:53.939Z,75.59
2019-01-25T12:05:04.085Z,75.87
2019-01-25T12:06:14.206Z,75.31
2019-01-25T12:07:24.342Z,75.4
2019-01-25T12:08:34.487Z,75.02
2019-01-25T12:09:44.644Z,74.36
2019-01-25T12:10:54.779Z,74.45
2019-01-25T12:12:04.895Z,74.45
2019-01-25T12:13:18.849Z,74.07
2019-01-25T12:14:28.967Z,74.45
2019-01-25T12:15:39.104Z,74.45
2019-01-25T12:16:48.949Z,74.17
2019-01-25T12:17:59.088Z,74.26
2019-01-25T12:19:09.212Z,74.07
2019-01-25T12:20:19.348Z,74.45
2019-01-25T12:21:29.201Z,74.02
2019-01-25T12:22:39.436Z,73.79
2019-01-25T12:23:49.687Z,73.79
2019-01-25T12:24:59.451Z,73.98
2019-01-25T12:26:09.567Z,74.07
2019-01-25T12:27:19.710Z,73.88
2019-01-25T12:28:29.832Z,73.6
2019-01-25T12:29:39.941Z,74.07
2019-01-25T12:30:50.318Z,73.88
2019-01-25T12:32:01.254Z,73.79
2019-01-25T12:33:11.458Z,73.69
2019-01-25T12:34:21.579Z,73.79
2019-01-25T12:35:31.688Z,73.98
2019-01-25T12:36:41.564Z,73.69
2019-01-25T12:37:51.678Z,73.5
2019-01-25T12:39:01.806Z,73.5
2019-01-25T12:40:11.968Z,74.07
2019-01-25T12:41:22.125Z,73.6
2019-01-25T12:42:32.242Z,73.79
2019-01-25T12:43:42.375Z,74.07
2019-01-25T12:44:52.514Z,74.07
2019-01-25T12:46:02.644Z,73.88
2019-01-25T12:47:12.749Z,73.88
2019-01-25T12:48:22.876Z,73.79
2019-01-25T12:49:33.017Z,73.6
2019-01-25T12:50:43.137Z,73.98
2019-01-25T12:51:58.571Z,73.41
2019-01-25T12:53:13.672Z,73.69
2019-01-25T12:54:23.903Z,73.41
2019-01-25T12:55:35.343Z,73.88
2019-01-25T12:56:45.474Z,73.88
2019-01-25T12:57:55.594Z,73.92
2019-01-25T12:59:05.738Z,73.69
2019-01-25T13:00:15.972Z,73.35
2019-01-25T13:01:26.155Z,73.07
2019-01-25T13:02:40.387Z,73.07
2019-01-25T13:03:50.510Z,72.78
2019-01-25T13:05:00.625Z,72.88
2019-01-25T13:06:10.768Z,72.97
2019-01-25T13:07:21.014Z,73.16
2019-01-25T13:08:31.157Z,73.07
2019-01-25T13:09:41.319Z,73.07
2019-01-25T13:10:51.523Z,73.07
2019-01-25T13:12:01.648Z,72.5
2019-01-25T13:13:11.856Z,72.47
2019-01-25T13:14:22.062Z,72.69
2019-01-25T13:15:32.182Z,72.31
2019-01-25T13:16:42.316Z,72.41
2019-01-25T13:17:53.818Z,72.22
2019-01-25T13:19:03.976Z,72.31
2019-01-25T13:20:14.096Z,71.93
2019-01-25T13:21:24.210Z,71.93
2019-01-25T13:22:35.134Z,71.52
2019-01-25T13:23:45.289Z,71.61
2019-01-25T13:24:55.523Z,71.42
2019-01-25T13:26:05.636Z,71.61
2019-01-25T13:27:15.884Z,71.71
2019-01-25T13:28:26.037Z,71.52
2019-01-25T13:29:36.410Z,71.52
2019-01-25T13:30:46.436Z,71.33
2019-01-25T13:31:56.986Z,71.33
2019-01-25T13:33:07.409Z,71.33
2019-01-25T13:34:17.593Z,71.71
2019-01-25T13:35:27.967Z,71.42
2019-01-25T13:36:38.283Z,71.61
2019-01-25T13:37:48.421Z,71.61
2019-01-25T13:38:58.590Z,71.71
2019-01-25T13:40:09.187Z,72.09
2019-01-25T13:41:19.362Z,72.28
2019-01-25T13:42:32.820Z,71.99
2019-01-25T13:43:43.915Z,71.71
2019-01-25T13:44:54.059Z,71.33
2019-01-25T13:46:04.168Z,71.33
2019-01-25T13:47:14.315Z,71.33
2019-01-25T13:48:24.455Z,72.09
2019-01-25T13:49:34.219Z,71.99
2019-01-25T13:50:44.098Z,72.47
2019-01-25T13:51:56.047Z,72.18
2019-01-25T13:53:06.244Z,72.18
2019-01-25T13:54:16.387Z,72.37
2019-01-25T13:55:31.553Z,71.52
2019-01-25T13:56:41.695Z,71.52
2019-01-25T13:57:51.834Z,71.52
2019-01-25T13:59:01.956Z,71.52
2019-01-25T14:00:13.268Z,71.42
2019-01-25T14:01:23.446Z,71.52
2019-01-25T14:02:40.029Z,71.61
2019-01-25T14:03:50.174Z,71.52
2019-01-25T14:05:32.193Z,71.04
2019-01-25T14:06:42.362Z,71.01
2019-01-25T14:07:52.484Z,71.01
2019-01-25T14:09:02.641Z,70.63
2019-01-25T14:10:12.510Z,70.63
2019-01-25T14:11:22.667Z,70.54
2019-01-25T14:12:32.874Z,70.82
2019-01-25T14:13:49.300Z,70.25
2019-01-25T14:14:59.453Z,70.16
2019-01-25T14:16:09.585Z,70.16
2019-01-25T14:17:19.735Z,69.87
2019-01-25T14:18:29.897Z,70.06
2019-01-25T14:19:40.033Z,70.16
2019-01-25T14:20:50.278Z,69.78
2019-01-25T14:22:00.424Z,69.78
2019-01-25T14:23:10.686Z,70.25
2019-01-25T14:24:20.789Z,70.06
2019-01-25T14:25:30.929Z,69.87
2019-01-25T14:26:41.105Z,69.87
2019-01-25T14:27:51.258Z,70.25
2019-01-25T14:29:01.536Z,69.12
2019-01-25T14:30:13.386Z,68.84
2019-01-25T14:31:23.560Z,68.93
2019-01-25T14:32:33.695Z,68.93
2019-01-25T14:33:43.866Z,68.74
2019-01-25T14:34:54.245Z,68.65
2019-01-25T14:36:04.130Z,68.65
2019-01-25T14:37:14.280Z,68.17
2019-01-25T14:38:24.425Z,68.27
2019-01-25T14:39:34.671Z,67.89
2019-01-25T14:40:44.820Z,67.89
2019-01-25T14:41:54.699Z,68.27
2019-01-25T14:43:04.860Z,67.79
2019-01-25T14:44:15.002Z,67.79
2019-01-25T14:45:25.143Z,67.79
2019-01-25T14:46:35.039Z,67.7
2019-01-25T14:47:44.914Z,67.89
2019-01-25T14:48:55.096Z,67.6
2019-01-25T14:50:05.238Z,67.6
2019-01-25T14:51:16.060Z,67.79
2019-01-25T14:52:26.206Z,68.36
2019-01-25T14:53:36.336Z,68.08
2019-01-25T14:54:46.493Z,67.89
2019-01-25T14:55:56.660Z,67.79
2019-01-25T14:57:06.806Z,67.79
2019-01-25T14:58:17.655Z,67.98
2019-01-25T14:59:27.929Z,67.79
2019-01-25T15:00:38.083Z,67.79
2019-01-25T15:01:48.242Z,67.79
2019-01-25T15:02:58.382Z,67.79
2019-01-25T15:04:08.509Z,68.17
2019-01-25T15:05:18.635Z,68.27
2019-01-25T15:06:28.773Z,68.27
2019-01-25T15:07:38.927Z,68.27
2019-01-25T15:08:48.717Z,67.7